Time;durP1;ratioP1;P1;durP2;ratioP2;P2;SDS_P1;SDS_P2;PMS_P1;PMS_P2;Temp;Humidity;BMP_temperature;BMP_pressure;BME280_temperature;BME280_humidity;BME280_pressure;Samples;Min_cycle;Max_cycle;Signal;HPM_P1;HPM_P2
2022/08/16 00:02:43;;;;;;;64.15;36.97;;;;;;;29.14;78.01;97804.09;4816671;29;20061;-66
2022/08/16 00:05:34;;;;;;;64.85;35.15;;;;;;;29.20;77.60;97799.09;4808834;29;20601;-66
2022/08/16 00:08:27;;;;;;;60.22;33.80;;;;;;;29.17;78.06;97806.09;4798394;29;20062;-67
2022/08/16 00:11:19;;;;;;;59.17;31.73;;;;;;;29.19;77.60;97814.03;4798243;29;20051;-66
2022/08/16 00:14:04;;;;;;;58.00;31.88;;;;;;;29.17;78.08;97822.69;4799149;29;20062;-66
2022/08/16 00:16:54;;;;;;;53.65;29.60;;;;;;;29.15;77.35;97818.69;4816778;29;20529;-68
2022/08/16 00:19:55;;;;;;;56.58;30.27;;;;;;;29.12;77.27;97827.66;4816778;29;20050;-67
2022/08/16 00:22:52;;;;;;;51.30;29.25;;;;;;;29.11;77.16;97829.63;4811383;29;20054;-69
2022/08/16 00:25:49;;;;;;;45.13;27.15;;;;;;;29.12;77.43;97834.00;4805079;29;20055;-72
2022/08/16 00:28:44;;;;;;;43.72;25.40;;;;;;;29.09;77.25;97838.25;4788296;29;20135;-71
2022/08/16 00:31:43;;;;;;;38.85;25.73;;;;;;;29.12;77.14;97841.47;4798320;29;20051;-70
2022/08/16 00:34:41;;;;;;;42.08;25.02;;;;;;;29.12;77.59;97841.47;4798503;29;20059;-71
2022/08/16 00:37:34;;;;;;;34.20;20.73;;;;;;;29.08;77.30;97842.19;4808386;29;20042;-71
2022/08/16 00:40:42;;;;;;;27.42;17.30;;;;;;;29.08;76.88;97842.19;4802261;29;20046;-71
2022/08/16 00:43:41;;;;;;;24.52;15.80;;;;;;;29.11;76.69;97850.94;4801901;29;20067;-69
2022/08/16 00:46:35;;;;;;;24.17;15.10;;;;;;;29.09;77.02;97848.53;4803826;29;20046;-71
2022/08/16 00:49:44;;;;;;;20.15;13.10;;;;;;;29.13;76.87;97843.13;4802212;29;20084;-71
2022/08/16 00:52:36;;;;;;;23.00;14.60;;;;;;;29.17;77.37;97844.00;4803394;29;20050;-69
2022/08/16 00:55:33;;;;;;;20.95;12.40;;;;;;;29.17;77.29;97839.25;4803757;29;20050;-69
2022/08/16 00:58:21;;;;;;;19.10;11.75;;;;;;;29.26;77.14;97847.38;4803914;29;20510;-73
2022/08/16 01:01:16;;;;;;;15.93;9.95;;;;;;;29.22;77.23;97849.25;4819269;29;20051;-72
2022/08/16 01:03:59;;;;;;;11.10;8.10;;;;;;;29.31;76.48;97844.31;4813775;29;20062;-71
2022/08/16 01:07:11;;;;;;;9.35;6.20;;;;;;;29.28;77.17;97851.38;4815656;29;20058;-73
2022/08/16 01:10:06;;;;;;;9.27;5.80;;;;;;;29.36;77.12;97857.88;4819655;29;20059;-72
2022/08/16 01:12:49;;;;;;;10.18;6.15;;;;;;;29.40;76.98;97853.22;4820524;29;20050;-70
2022/08/16 01:15:45;;;;;;;7.10;5.57;;;;;;;29.44;76.86;97856.84;4832444;29;20069;-73
2022/08/16 01:18:46;;;;;;;7.45;5.38;;;;;;;29.47;77.24;97858.91;4814944;29;20065;-71
2022/08/16 01:21:57;;;;;;;5.95;4.95;;;;;;;29.53;76.89;97859.44;4805976;29;20122;-72
2022/08/16 01:24:58;;;;;;;8.90;5.95;;;;;;;29.56;76.38;97874.50;4802549;29;20487;-70
2022/08/16 01:27:51;;;;;;;6.90;5.57;;;;;;;29.64;76.92;97879.84;4817220;29;20345;-70
2022/08/16 01:30:50;;;;;;;9.45;6.10;;;;;;;29.68;76.28;97877.16;4816966;29;20069;-68
2022/08/16 01:33:25;;;;;;;9.25;6.00;;;;;;;29.66;76.73;97873.94;4817656;29;20046;-69
2022/08/16 01:36:22;;;;;;;15.90;6.78;;;;;;;29.76;76.97;97881.69;4817494;29;20056;-69
2022/08/16 01:39:09;;;;;;;11.50;7.50;;;;;;;29.78;76.86;97873.84;4817849;29;20057;-69
2022/08/16 01:42:11;;;;;;;11.95;7.28;;;;;;;29.79;77.14;97875.47;4821475;29;20076;-71
2022/08/16 01:44:51;;;;;;;15.30;8.85;;;;;;;29.78;76.50;97876.59;4820610;29;20716;-71
2022/08/16 01:47:41;;;;;;;15.65;9.20;;;;;;;29.82;76.72;97874.72;4830044;29;20373;-71
2022/08/16 01:50:29;;;;;;;19.48;9.88;;;;;;;29.86;76.17;97880.31;4817341;29;20049;-70
2022/08/16 01:53:37;;;;;;;18.88;10.30;;;;;;;29.89;75.26;97881.59;4805357;29;20145;-69
2022/08/16 01:56:32;;;;;;;15.30;9.48;;;;;;;29.85;75.87;97879.53;4835428;29;20066;-72
2022/08/16 01:59:28;;;;;;;20.40;11.02;;;;;;;29.89;75.59;97878.81;4816171;29;20062;-69
2022/08/16 02:02:05;;;;;;;19.30;10.70;;;;;;;29.85;75.66;97874.00;4817662;29;20227;-69
2022/08/16 02:05:14;;;;;;;20.23;10.80;;;;;;;29.93;75.29;97876.94;4819125;29;20538;-68
2022/08/16 02:07:49;;;;;;;26.00;13.23;;;;;;;29.97;75.27;97875.03;4812931;29;20785;-69
2022/08/16 02:10:38;;;;;;;;;;;;;;;30.01;74.91;97878.66;4812279;29;20069;-73
2022/08/16 02:13:27;;;;;;;24.55;14.15;;;;;;;30.00;75.32;97885.34;4818099;29;20375;-68
2022/08/16 02:16:13;;;;;;;26.77;15.05;;;;;;;30.05;75.22;97882.31;4818756;29;20066;-69
2022/08/16 02:19:06;;;;;;;24.98;14.35;;;;;;;30.10;75.38;97884.78;4818957;29;20078;-69
2022/08/16 02:21:58;;;;;;;27.73;15.07;;;;;;;30.15;75.72;97886.47;4819268;29;20046;-70
2022/08/16 02:24:49;;;;;;;34.42;17.17;;;;;;;30.23;75.11;97885.47;4802489;29;20435;-68
2022/08/16 02:27:31;;;;;;;34.00;19.33;;;;;;;30.01;73.44;97882.22;4819005;29;20893;-68
2022/08/16 02:30:24;;;;;;;31.27;19.85;;;;;;;30.15;74.00;97890.03;4819383;29;20078;-69
2022/08/16 02:33:23;;;;;;;30.80;18.80;;;;;;;30.26;73.39;97893.81;4818789;29;20051;-69
2022/08/16 02:36:33;;;;;;;32.72;18.70;;;;;;;30.31;73.18;97889.16;4802050;29;20046;-71
2022/08/16 02:39:30;;;;;;;34.95;20.17;;;;;;;30.28;73.41;97892.66;4831773;29;20054;-72
2022/08/16 02:42:14;;;;;;;41.90;20.58;;;;;;;30.36;72.37;97897.19;4832120;29;20050;-69
2022/08/16 02:45:03;;;;;;;37.30;20.40;;;;;;;30.47;73.05;97891.88;4830531;29;20054;-72
2022/08/16 02:47:48;;;;;;;36.17;21.00;;;;;;;30.60;73.34;97893.31;4786306;29;20731;-70
2022/08/16 02:50:51;;;;;;;42.63;20.08;;;;;;;30.73;73.09;97893.94;4808059;29;20074;-70
2022/08/16 02:53:54;;;;;;;33.47;20.30;;;;;;;30.76;73.67;97898.72;4818481;29;20062;-70
2022/08/16 02:56:43;;;;;;;40.65;20.92;;;;;;;30.86;73.56;97898.13;4817114;29;20058;-70
2022/08/16 02:59:29;;;;;;;35.83;20.98;;;;;;;30.90;72.32;97896.25;4815065;29;20063;-70
2022/08/16 03:02:20;;;;;;;41.92;21.45;;;;;;;30.95;72.65;97898.69;4818322;29;20057;-69
2022/08/16 03:05:16;;;;;;;47.45;23.08;;;;;;;31.06;71.87;97906.41;4810908;29;20046;-69
2022/08/16 03:08:08;;;;;;;43.70;24.25;;;;;;;30.91;70.43;97900.59;4813106;29;20056;-71
2022/08/16 03:11:17;;;;;;;35.95;23.38;;;;;;;31.01;69.31;97897.25;4822881;29;20050;-71
2022/08/16 03:14:02;;;;;;;35.03;22.15;;;;;;;31.20;69.15;97901.09;4826165;29;20057;-71
2022/08/16 03:16:52;;;;;;;38.80;21.92;;;;;;;31.03;69.33;97908.75;4803931;29;20050;-72
2022/08/16 03:19:44;;;;;;;36.45;21.50;;;;;;;31.35;69.93;97910.44;4800136;29;20142;-69
2022/08/16 03:22:45;;;;;;;34.83;20.67;;;;;;;31.38;69.92;97902.19;4819003;29;20068;-71
2022/08/16 03:25:43;;;;;;;41.15;21.15;;;;;;;31.69;69.72;97905.84;4823955;29;20126;-71
2022/08/16 03:28:21;;;;;;;37.92;20.95;;;;;;;31.69;69.68;97911.38;4802075;29;20784;-70
2022/08/16 03:31:19;;;;;;;36.47;19.67;;;;;;;31.59;69.23;97912.03;4800552;29;20479;-70
2022/08/16 03:34:27;;;;;;;35.60;21.80;;;;;;;31.63;68.39;97910.13;4796019;29;20058;-72
2022/08/16 03:37:16;;;;;;;38.53;21.55;;;;;;;31.63;69.47;97910.13;4825113;29;20069;-69
2022/08/16 03:40:11;;;;;;;30.67;21.30;;;;;;;31.80;69.06;97911.56;4821447;29;20022;-71
2022/08/16 03:43:13;;;;;;;34.42;21.80;;;;;;;31.84;68.48;97914.38;4786219;29;20114;-74
2022/08/16 03:46:04;;;;;;;32.08;19.40;;;;;;;31.68;67.62;97915.34;4813099;29;20051;-70
2022/08/16 03:49:22;;;;;;;31.08;17.10;;;;;;;31.76;66.91;97917.03;4816011;29;20054;-71
2022/08/16 03:52:12;;;;;;;26.80;17.05;;;;;;;31.89;66.43;97908.47;4808470;29;20062;-71
2022/08/16 03:55:11;;;;;;;25.00;17.05;;;;;;;31.92;66.13;97913.28;4813708;29;20137;-71
2022/08/16 03:57:50;;;;;;;29.25;18.20;;;;;;;32.09;66.50;97918.31;4770189;29;20603;-70
2022/08/16 04:00:48;;;;;;;24.63;16.80;;;;;;;32.32;66.99;97920.19;4810431;29;20050;-70
2022/08/16 04:03:34;;;;;;;26.80;15.30;;;;;;;32.18;66.57;97921.59;4806921;29;20098;-72
2022/08/16 04:06:24;;;;;;;18.38;12.93;;;;;;;32.44;66.00;97922.69;4802261;29;20402;-73
2022/08/16 04:09:14;;;;;;;43.08;11.52;;;;;;;32.30;64.95;97928.09;4832934;29;20085;-70
2022/08/16 04:11:56;;;;;;;17.93;9.13;;;;;;;32.46;64.39;97928.66;4815994;29;20069;-72
2022/08/16 04:14:51;;;;;;;22.42;11.68;;;;;;;32.69;64.40;97934.09;4796605;29;20566;-67
2022/08/16 04:17:34;;;;;;;19.05;9.98;;;;;;;33.06;63.74;97930.53;4834812;29;20528;-69
2022/08/16 04:20:23;;;;;;;15.15;10.05;;;;;;;33.29;63.93;97927.56;4836894;29;20057;-70
2022/08/16 04:23:18;;;;;;;15.20;10.50;;;;;;;33.39;62.79;97928.03;4836855;29;20137;-70
2022/08/16 04:26:08;;;;;;;22.92;10.77;;;;;;;33.47;62.82;97926.91;4836852;29;20061;-67
2022/08/16 04:28:57;;;;;;;16.73;10.68;;;;;;;33.67;62.01;97931.06;4822033;29;20065;-69
2022/08/16 04:32:03;;;;;;;14.88;9.27;;;;;;;33.31;61.22;97925.19;4838053;29;20054;-72
2022/08/16 04:34:45;;;;;;;10.95;8.40;;;;;;;33.72;60.69;97927.91;4836607;29;20050;-71
2022/08/16 04:37:35;;;;;;;13.13;8.63;;;;;;;34.05;61.08;97931.69;4785077;29;20058;-71
2022/08/16 04:40:30;;;;;;;10.48;7.72;;;;;;;33.97;60.13;97930.03;4797298;29;20166;-70
2022/08/16 04:43:14;;;;;;;17.33;8.25;;;;;;;34.26;61.42;97939.38;4803324;29;20233;-67
2022/08/16 04:46:08;;;;;;;10.95;7.07;;;;;;;34.42;58.92;97941.03;4803313;29;20050;-69
2022/08/16 04:49:10;;;;;;;;;;;;;;;34.67;59.65;97938.34;4803246;29;20060;-71
2022/08/16 04:51:58;;;;;;;13.85;7.60;;;;;;;34.79;57.73;97934.38;4819656;29;20587;-70
2022/08/16 04:54:43;;;;;;;13.75;8.40;;;;;;;34.82;59.88;97936.41;4803207;29;20170;-72
2022/08/16 04:57:31;;;;;;;13.35;7.80;;;;;;;34.60;58.82;97935.50;4802987;29;20046;-70
2022/08/16 05:00:25;;;;;;;11.73;7.47;;;;;;;34.68;58.58;97926.00;4817166;29;20063;-72
2022/08/16 05:03:18;;;;;;;10.85;7.03;;;;;;;34.62;59.19;97927.53;4797040;29;20059;-69
2022/08/16 05:06:07;;;;;;;17.10;7.30;;;;;;;34.73;61.37;97925.63;4815606;29;20134;-70
2022/08/16 05:08:48;;;;;;;10.05;6.95;;;;;;;34.88;58.06;97929.22;4802363;29;20095;-75
2022/08/16 05:11:38;;;;;;;10.63;7.00;;;;;;;35.21;56.86;97925.28;4802483;29;20058;-74
2022/08/16 05:14:28;;;;;;;17.23;7.35;;;;;;;35.45;55.30;97918.13;4802224;29;20082;-73
2022/08/16 05:17:32;;;;;;;13.00;7.05;;;;;;;35.82;54.51;97916.09;4800694;29;20463;-76
2022/08/16 05:20:29;;;;;;;13.73;6.90;;;;;;;36.00;54.22;97910.44;4796290;29;20473;-72
2022/08/16 05:23:18;;;;;;;;;;;;;;;36.58;53.88;97914.63;4823809;29;20049;-72
2022/08/16 05:26:19;;;;;;;11.43;6.95;;;;;;;36.16;53.36;97915.59;4822899;29;19939;-73
2022/08/16 05:28:56;;;;;;;12.73;6.93;;;;;;;36.36;55.26;97911.13;4817118;29;20170;-76
2022/08/16 05:31:54;;;;;;;16.35;8.48;;;;;;;36.88;54.61;97916.09;4799116;29;20656;-70
2022/08/16 05:34:41;;;;;;;13.40;7.50;;;;;;;36.97;54.30;97901.63;4821591;29;20080;-72
2022/08/16 05:37:31;;;;;;;9.35;7.47;;;;;;;37.15;53.41;97905.13;4805982;29;20047;-73
2022/08/16 05:40:28;;;;;;;13.15;8.00;;;;;;;37.35;56.02;97901.75;4813302;29;20388;-74
2022/08/16 05:43:04;;;;;;;10.10;6.60;;;;;;;37.27;50.13;97906.59;4816017;29;20058;-74
2022/08/16 05:45:56;;;;;;;19.08;7.18;;;;;;;37.04;51.25;97895.97;4808997;29;20111;-78
2022/08/16 05:48:40;;;;;;;13.05;6.38;;;;;;;37.61;49.90;97903.13;4790078;29;20552;-72
2022/08/16 05:51:42;;;;;;;12.25;6.45;;;;;;;37.14;51.46;97897.91;4810509;29;20050;-73
2022/08/16 05:54:20;;;;;;;10.57;6.38;;;;;;;37.44;49.14;97896.47;4814624;29;20641;-71
2022/08/16 05:57:16;;;;;;;10.27;6.57;;;;;;;37.65;53.28;97889.88;4799269;29;20371;-75
2022/08/16 05:59:52;;;;;;;10.35;6.30;;;;;;;37.44;52.42;97896.47;4814367;29;20150;-73
2022/08/16 06:02:52;;;;;;;;;;;;;;;37.30;52.14;97890.97;4806878;29;20065;-74
2022/08/16 06:06:08;;;;;;;16.20;6.35;;;;;;;37.76;52.18;97890.56;4802353;29;19929;-74
2022/08/16 06:09:10;;;;;;;7.50;5.72;;;;;;;37.69;51.63;97887.06;4788748;29;20046;-72
2022/08/16 06:11:54;;;;;;;15.20;7.18;;;;;;;37.47;54.13;97887.22;4817914;29;20042;-73
2022/08/16 06:14:43;;;;;;;9.45;6.47;;;;;;;37.55;51.73;97877.56;4827024;29;20054;-72
2022/08/16 06:17:27;;;;;;;10.38;6.43;;;;;;;37.67;49.86;97875.47;4834558;29;20058;-74
2022/08/16 06:20:28;;;;;;;13.50;7.07;;;;;;;37.69;51.08;97884.25;4794008;29;20054;-73
2022/08/16 06:23:25;;;;;;;8.60;6.60;;;;;;;37.87;49.97;97879.22;4818575;29;20172;-74
2022/08/16 06:26:22;;;;;;;12.07;6.18;;;;;;;38.22;49.14;97874.44;4801686;29;20050;-73
2022/08/16 06:29:10;;;;;;;12.10;6.95;;;;;;;38.46;51.75;97868.91;4793709;29;20236;-74
2022/08/16 06:32:12;;;;;;;13.95;6.05;;;;;;;38.25;50.40;97876.41;4815041;29;20169;-73
2022/08/16 06:35:16;;;;;;;9.88;5.95;;;;;;;37.69;50.73;97861.84;4761946;29;20066;-69
2022/08/16 06:38:04;;;;;;;10.13;6.18;;;;;;;37.96;51.41;97865.53;4792962;29;20052;-72
2022/08/16 06:41:08;;;;;;;16.63;7.03;;;;;;;37.05;49.13;97864.00;4764610;29;20551;-74
2022/08/16 06:44:04;;;;;;;10.65;6.35;;;;;;;37.82;49.74;97860.09;4792353;29;20047;-72
2022/08/16 06:46:39;;;;;;;21.30;8.98;;;;;;;37.95;53.55;97858.34;4783401;29;20754;-72
2022/08/16 06:49:38;;;;;;;14.00;7.00;;;;;;;37.88;48.87;97858.44;4799301;29;20061;-70
2022/08/16 06:52:13;;;;;;;11.70;7.18;;;;;;;37.73;51.51;97855.00;4799645;29;21310;-73
2022/08/16 06:55:22;;;;;;;10.90;6.45;;;;;;;37.92;49.82;97858.38;4793876;29;20059;-70
2022/08/16 06:58:05;;;;;;;9.67;6.97;;;;;;;37.23;49.13;97853.47;4779284;29;20140;-72
2022/08/16 07:01:08;;;;;;;;;;;;;;;37.82;48.19;97851.69;4779526;29;20633;-70
2022/08/16 07:04:06;;;;;;;20.40;6.88;;;;;;;38.16;50.53;97856.50;4779250;29;19927;-74
2022/08/16 07:06:45;;;;;;;10.40;6.50;;;;;;;37.70;50.55;97853.03;4772851;29;20052;-72
2022/08/16 07:09:34;;;;;;;12.40;6.80;;;;;;;37.62;48.78;97845.91;4781538;29;20055;-71
2022/08/16 07:12:16;;;;;;;9.48;5.85;;;;;;;37.62;53.92;97845.91;4754035;29;20060;-71
2022/08/16 07:15:26;;;;;;;19.45;6.38;;;;;;;37.73;53.80;97848.59;4765173;29;20052;-71
2022/08/16 07:18:18;;;;;;;12.10;5.50;;;;;;;37.70;54.21;97852.22;4764042;29;20051;-72
2022/08/16 07:21:01;;;;;;;8.30;6.10;;;;;;;37.45;49.17;97835.69;4776691;29;20055;-73
2022/08/16 07:23:51;;;;;;;13.45;6.00;;;;;;;37.57;49.85;97835.16;4772817;29;20055;-73
2022/08/16 07:26:47;;;;;;;16.98;8.05;;;;;;;37.58;49.71;97834.72;4763358;30;20064;-74
2022/08/16 07:29:30;;;;;;;14.23;8.00;;;;;;;37.36;49.96;97827.78;4766800;29;20197;-73
2022/08/16 07:32:20;;;;;;;10.88;7.60;;;;;;;37.38;51.49;97823.34;4773505;29;20081;-74
2022/08/16 07:35:12;;;;;;;20.42;8.60;;;;;;;37.71;51.80;97821.03;4776613;29;20253;-75
2022/08/16 07:38:08;;;;;;;16.63;7.82;;;;;;;37.94;50.69;97814.72;4776712;29;20105;-73
2022/08/16 07:40:54;;;;;;;12.38;7.40;;;;;;;37.61;52.64;97810.75;4782573;29;20059;-73
2022/08/16 07:43:55;;;;;;;10.02;7.10;;;;;;;37.67;50.39;97822.28;4793714;29;20051;-73
2022/08/16 07:46:57;;;;;;;9.37;7.43;;;;;;;37.06;51.07;97809.66;4808645;29;20047;-74
2022/08/16 07:49:38;;;;;;;11.98;7.40;;;;;;;37.36;49.40;97820.19;4796295;29;20119;-73
2022/08/16 07:52:39;;;;;;;12.15;6.53;;;;;;;37.16;46.54;97814.38;4795049;29;20082;-74
2022/08/16 07:55:21;;;;;;;12.40;7.65;;;;;;;36.68;48.51;97809.56;4810134;29;20138;-72
2022/08/16 07:58:34;;;;;;;16.08;7.85;;;;;;;37.01;49.28;97810.09;4820469;29;20136;-74
2022/08/16 08:01:21;;;;;;;18.00;8.55;;;;;;;36.93;49.39;97814.94;4795513;29;20046;-74
2022/08/16 08:04:12;;;;;;;13.00;8.07;;;;;;;37.06;50.70;97804.06;4810271;29;20092;-74
2022/08/16 08:06:56;;;;;;;15.98;7.68;;;;;;;37.30;50.44;97795.84;4791956;29;20058;-74
2022/08/16 08:09:50;;;;;;;18.02;9.00;;;;;;;37.13;48.50;97790.03;4806141;29;20050;-73
2022/08/16 08:12:32;;;;;;;15.32;8.18;;;;;;;37.07;48.41;97793.66;4828597;29;20054;-72
2022/08/16 08:15:26;;;;;;;18.83;8.05;;;;;;;37.04;48.84;97784.88;4811968;29;20053;-74
2022/08/16 08:18:14;;;;;;;14.85;7.70;;;;;;;37.12;46.91;97784.81;4814341;29;20065;-73
2022/08/16 08:21:12;;;;;;;12.52;8.15;;;;;;;37.64;47.13;97781.13;4797787;29;20516;-73
2022/08/16 08:23:55;;;;;;;12.23;7.50;;;;;;;37.74;46.96;97780.19;4801131;29;20058;-74
2022/08/16 08:26:50;;;;;;;13.02;6.97;;;;;;;37.59;49.42;97769.13;4825696;29;20050;-73
2022/08/16 08:29:32;;;;;;;19.20;9.35;;;;;;;37.12;49.62;97763.22;4813374;29;20183;-74
2022/08/16 08:32:23;;;;;;;16.63;9.95;;;;;;;37.17;48.62;97762.03;4820018;29;20065;-72
2022/08/16 08:35:33;;;;;;;16.30;9.52;;;;;;;37.13;49.35;97747.22;4793201;29;20051;-74
2022/08/16 08:38:31;;;;;;;16.33;8.55;;;;;;;37.00;50.86;97744.19;4823095;29;20122;-74
2022/08/16 08:41:19;;;;;;;;;;;;;;;37.21;50.94;97741.19;4800710;29;20047;-74
2022/08/16 08:44:18;;;;;;;27.25;14.68;;;;;;;36.58;52.33;97726.56;4827774;29;19924;-72
2022/08/16 08:47:08;;;;;;;23.50;14.20;;;;;;;36.82;51.41;97731.19;4820981;29;20059;-73
2022/08/16 08:49:57;;;;;;;19.73;14.20;;;;;;;36.87;51.66;97723.53;4820253;29;20058;-74
2022/08/16 08:52:42;;;;;;;24.88;14.85;;;;;;;36.21;53.03;97722.44;4817318;29;20051;-73
2022/08/16 08:55:41;;;;;;;27.38;14.15;;;;;;;36.88;51.04;97722.31;4817513;29;20051;-73
2022/08/16 08:58:16;;;;;;;23.05;12.88;;;;;;;36.90;51.91;97715.13;4798043;29;20058;-73
2022/08/16 09:01:31;;;;;;;20.25;13.73;;;;;;;36.90;51.71;97714.31;4799224;29;20063;-73
2022/08/16 09:04:23;;;;;;;19.20;11.73;;;;;;;36.77;51.99;97709.25;4790957;29;20077;-73
2022/08/16 09:07:20;;;;;;;19.77;12.20;;;;;;;36.73;50.55;97707.72;4821347;29;20063;-74
2022/08/16 09:09:58;;;;;;;14.98;11.20;;;;;;;36.47;53.24;97701.50;4821430;29;20071;-73
2022/08/16 09:13:00;;;;;;;13.95;9.93;;;;;;;36.56;53.10;97693.44;4801236;29;20516;-72
2022/08/16 09:15:57;;;;;;;15.25;11.32;;;;;;;36.37;52.32;97692.00;4811405;29;20407;-73
2022/08/16 09:18:41;;;;;;;15.18;10.02;;;;;;;37.09;52.83;97691.34;4788842;29;20055;-74
2022/08/16 09:21:38;;;;;;;14.57;9.38;;;;;;;36.88;52.53;97681.19;4791932;29;20047;-75
2022/08/16 09:24:21;;;;;;;13.90;7.88;;;;;;;36.10;53.15;97683.41;4805577;29;20073;-73
2022/08/16 09:27:31;;;;;;;15.07;7.85;;;;;;;36.65;53.49;97679.03;4798880;29;20476;-72
2022/08/16 09:30:37;;;;;;;12.75;8.38;;;;;;;36.86;52.40;97671.59;4800091;29;20157;-75
2022/08/16 09:33:28;;;;;;;11.35;6.80;;;;;;;36.16;53.52;97670.59;4799352;29;20050;-74
2022/08/16 09:36:28;;;;;;;12.10;7.30;;;;;;;36.49;52.66;97664.75;4816940;29;20066;-72
2022/08/16 09:39:32;;;;;;;9.57;6.65;;;;;;;35.90;54.67;97665.59;4814005;29;20054;-73
2022/08/16 09:42:15;;;;;;;7.00;5.32;;;;;;;36.38;55.08;97659.25;4803426;29;20053;-72
2022/08/16 09:45:13;;;;;;;7.75;6.32;;;;;;;36.00;55.25;97656.34;4809984;29;20071;-72
2022/08/16 09:47:53;;;;;;;7.00;5.82;;;;;;;35.87;55.43;97647.66;4817551;29;20099;-73
2022/08/16 09:50:50;;;;;;;8.13;6.10;;;;;;;36.26;54.68;97643.81;4830459;29;20065;-73
2022/08/16 09:53:31;;;;;;;12.25;6.25;;;;;;;36.05;56.28;97644.72;4836762;29;20443;-72
2022/08/16 09:56:40;;;;;;;8.35;6.07;;;;;;;35.65;57.65;97642.16;4811251;29;20059;-73
2022/08/16 09:59:26;;;;;;;9.23;5.57;;;;;;;35.14;57.79;97634.44;4817407;29;20050;-75
2022/08/16 10:02:25;;;;;;;9.70;6.43;;;;;;;35.43;56.78;97635.16;4801956;29;20070;-73
2022/08/16 10:05:01;;;;;;;9.30;5.60;;;;;;;35.42;55.71;97622.38;4813040;29;20057;-68
2022/08/16 10:07:57;;;;;;;11.02;5.93;;;;;;;35.57;55.01;97623.09;4807698;29;20138;-73
2022/08/16 10:10:33;;;;;;;8.73;6.00;;;;;;;35.62;55.19;97615.09;4799569;29;20131;-73
2022/08/16 10:13:22;;;;;;;8.38;6.22;;;;;;;35.83;57.03;97613.41;4799863;29;20054;-71
2022/08/16 10:16:12;;;;;;;11.40;6.80;;;;;;;35.39;57.82;97607.25;4806953;29;20042;-72
2022/08/16 10:19:01;;;;;;;;;;;;;;;35.28;58.24;97601.72;4496320;29;10000146;-72
2022/08/16 10:21:49;;;;;;;9.20;5.97;;;;;;;35.27;55.65;97602.94;4831797;29;19940;-73
2022/08/16 10:24:39;;;;;;;8.13;6.15;;;;;;;35.29;56.09;97603.34;4814252;29;20119;-74
2022/08/16 10:27:41;;;;;;;9.43;5.93;;;;;;;35.11;58.31;97605.38;4822493;29;20542;-72
2022/08/16 10:30:37;;;;;;;10.15;6.97;;;;;;;34.98;58.16;97604.22;4818354;29;20050;-72
2022/08/16 10:33:36;;;;;;;9.65;6.70;;;;;;;34.94;57.28;97595.88;4815298;29;20109;-74
2022/08/16 10:36:33;;;;;;;9.50;6.57;;;;;;;34.88;56.53;97595.50;4796122;29;20043;-73
2022/08/16 10:39:24;;;;;;;9.48;6.45;;;;;;;34.72;59.91;97581.25;4778294;29;20059;-72
2022/08/16 10:42:22;;;;;;;13.60;6.75;;;;;;;35.12;56.40;97581.84;4788325;29;20150;-72
2022/08/16 10:45:11;;;;;;;10.15;6.72;;;;;;;35.19;58.20;97586.66;4783566;29;20063;-72
2022/08/16 10:47:53;;;;;;;8.95;6.15;;;;;;;34.98;56.73;97584.72;4768052;29;20056;-70
2022/08/16 10:50:51;;;;;;;8.10;6.25;;;;;;;35.00;58.15;97590.69;4773628;29;20048;-71
2022/08/16 10:53:28;;;;;;;11.98;7.03;;;;;;;35.09;58.28;97582.69;4789589;29;20102;-69
2022/08/16 10:56:18;;;;;;;14.35;7.70;;;;;;;34.84;57.44;97588.38;4768893;29;20060;-71
2022/08/16 10:59:21;;;;;;;10.73;7.35;;;;;;;34.94;57.39;97581.16;4769755;29;20066;-73
2022/08/16 11:02:35;;;;;;;9.82;6.93;;;;;;;35.18;57.88;97577.50;4767940;29;20560;-72
2022/08/16 11:05:39;;;;;;;9.77;6.30;;;;;;;35.43;58.34;97580.13;4779917;29;20139;-73
2022/08/16 11:08:46;;;;;;;12.20;6.60;;;;;;;35.05;58.85;97570.75;4774351;29;20082;-74
2022/08/16 11:11:29;;;;;;;11.57;5.78;;;;;;;34.97;58.05;97574.75;4770975;29;20066;-73
2022/08/16 11:14:38;;;;;;;9.23;6.13;;;;;;;35.43;56.46;97568.19;4792438;29;20164;-73
2022/08/16 11:17:40;;;;;;;9.07;6.47;;;;;;;35.44;58.96;97570.53;4776371;29;20117;-73
2022/08/16 11:20:48;;;;;;;9.77;6.55;;;;;;;34.95;57.70;97564.03;4786836;29;20058;-73
2022/08/16 11:23:39;;;;;;;6.28;4.93;;;;;;;35.02;58.86;97560.41;4785171;29;20051;-72
2022/08/16 11:26:39;;;;;;;6.70;5.43;;;;;;;34.89;58.08;97566.44;4783428;29;20643;-72
2022/08/16 11:29:48;;;;;;;11.80;5.32;;;;;;;34.98;58.04;97563.19;4787656;29;20236;-71
2022/08/16 11:32:38;;;;;;;5.82;5.20;;;;;;;34.57;58.64;97574.06;4789190;29;20615;-72
2022/08/16 11:35:21;;;;;;;;;;;;;;;35.03;57.34;97564.78;4787596;29;20062;-72
2022/08/16 11:38:37;;;;;;;6.65;5.18;;;;;;;34.93;57.38;97563.63;4816380;29;19936;-73
2022/08/16 11:41:37;;;;;;;9.57;5.10;;;;;;;34.79;56.54;97563.69;4786261;29;20047;-73
2022/08/16 11:44:34;;;;;;;8.02;4.82;;;;;;;34.81;57.37;97562.06;4787179;29;20066;-71
2022/08/16 11:47:36;;;;;;;9.35;4.45;;;;;;;34.75;56.98;97552.53;4789249;29;20055;-72
2022/08/16 11:50:25;;;;;;;7.85;4.35;;;;;;;34.80;56.38;97554.13;4794163;29;20063;-73
2022/08/16 11:53:07;;;;;;;6.13;4.68;;;;;;;34.58;56.20;97545.00;4801396;29;20055;-72
2022/08/16 11:55:58;;;;;;;6.93;5.10;;;;;;;34.65;55.69;97542.22;4776416;29;20536;-73
2022/08/16 11:58:42;;;;;;;6.80;4.60;;;;;;;34.59;56.04;97541.84;4792793;29;20480;-69
2022/08/16 12:01:37;;;;;;;5.78;4.20;;;;;;;34.58;54.84;97536.66;4770839;29;20094;-73
2022/08/16 12:04:36;;;;;;;6.03;4.13;;;;;;;34.22;56.54;97542.31;4778774;29;20055;-70
2022/08/16 12:07:27;;;;;;;11.52;4.47;;;;;;;34.34;55.33;97544.69;4793233;29;20119;-69
2022/08/16 12:10:17;;;;;;;5.47;3.97;;;;;;;34.36;56.26;97536.72;4795810;29;20055;-73
2022/08/16 12:13:08;;;;;;;4.75;3.95;;;;;;;34.34;55.50;97539.13;4787883;29;20064;-69
2022/08/16 12:15:49;;;;;;;12.10;4.95;;;;;;;34.36;55.10;97539.50;4782401;29;20058;-71
2022/08/16 12:18:39;;;;;;;5.60;3.88;;;;;;;34.46;54.11;97541.47;4771837;29;20055;-72
2022/08/16 12:21:21;;;;;;;8.63;3.72;;;;;;;34.33;56.76;97540.31;4782581;29;20047;-72
2022/08/16 12:24:32;;;;;;;11.13;3.85;;;;;;;34.29;53.90;97547.88;4777136;29;20047;-72
2022/08/16 12:27:15;;;;;;;9.20;4.03;;;;;;;34.49;57.28;97537.88;4791417;29;20062;-70
2022/08/16 12:30:04;;;;;;;7.65;4.30;;;;;;;34.63;59.13;97550.97;4786255;29;20062;-68
2022/08/16 12:33:03;;;;;;;8.52;3.90;;;;;;;34.56;57.98;97544.63;4781883;29;20069;-69
2022/08/16 12:35:54;;;;;;;7.30;4.05;;;;;;;34.62;58.35;97549.38;4792810;29;20047;-69
2022/08/16 12:38:43;;;;;;;5.80;4.63;;;;;;;34.71;58.31;97554.56;4815338;29;20051;-69
2022/08/16 12:41:36;;;;;;;7.10;5.05;;;;;;;34.36;59.80;97553.44;4783501;29;20043;-70
2022/08/16 12:44:25;;;;;;;7.13;4.90;;;;;;;34.34;61.15;97550.25;4794555;29;20544;-68
2022/08/16 12:50:16;;;;;;;10.77;5.40;;;;;;;34.28;59.88;97568.53;4787096;29;20400;-69
2022/08/16 12:53:15;;;;;;;9.20;5.00;;;;;;;34.36;61.90;97569.31;4784858;29;20863;-71
2022/08/16 12:55:58;;;;;;;10.18;5.80;;;;;;;34.36;63.49;97566.53;4783718;29;20059;-70
2022/08/16 12:58:49;;;;;;;9.77;6.00;;;;;;;34.21;61.17;97574.16;4783338;29;20103;-72
2022/08/16 13:01:35;;;;;;;10.90;6.40;;;;;;;34.13;62.96;97574.13;4782898;29;20085;-69
2022/08/16 13:04:24;;;;;;;7.25;5.72;;;;;;;34.31;60.83;97576.13;4784199;29;20071;-68
2022/08/16 13:07:13;;;;;;;6.97;6.28;;;;;;;33.91;63.48;97578.09;4782762;29;20467;-70
2022/08/16 13:10:01;;;;;;;10.02;6.97;;;;;;;34.12;63.41;97580.88;4785123;29;20061;-68
2022/08/16 13:13:10;;;;;;;8.88;7.85;;;;;;;33.71;64.50;97591.63;4788569;29;20104;-69
2022/08/16 13:16:01;;;;;;;12.85;7.50;;;;;;;33.79;63.87;97592.41;4793091;29;20047;-70
2022/08/16 13:19:01;;;;;;;12.68;7.90;;;;;;;34.10;63.24;97596.41;4793194;29;20115;-70
2022/08/16 13:21:50;;;;;;;17.20;7.80;;;;;;;34.01;64.25;97599.56;4794332;29;20132;-70
2022/08/16 13:24:32;;;;;;;12.30;7.43;;;;;;;34.11;63.34;97604.34;4784693;29;20071;-68
2022/08/16 13:27:28;;;;;;;12.82;8.13;;;;;;;34.16;64.63;97610.75;4781793;29;20065;-70
2022/08/16 13:30:25;;;;;;;9.65;7.63;;;;;;;34.05;64.42;97619.06;4782337;29;20063;-70